createdAt,value
2023-03-30T00:02:03.943Z,53.70
2023-03-30T00:07:08.895Z,53.50
2023-03-30T00:12:15.597Z,53.30
2023-03-30T00:17:19.634Z,53.30
2023-03-30T00:22:23.664Z,53.90
2023-03-30T00:27:27.793Z,53.10
2023-03-30T00:32:31.720Z,53.00
2023-03-30T00:37:37.801Z,53.00
2023-03-30T00:42:41.736Z,52.80
2023-03-30T00:47:50.836Z,53.10
2023-03-30T00:52:57.003Z,53.10
2023-03-30T00:58:02.126Z,53.20
2023-03-30T01:03:15.263Z,52.80
2023-03-30T01:08:20.719Z,52.90
2023-03-30T01:13:24.652Z,53.00
2023-03-30T01:18:39.726Z,53.50
2023-03-30T01:24:17.949Z,53.20
2023-03-30T01:29:44.694Z,54.00
2023-03-30T01:35:00.233Z,53.50
2023-03-30T01:40:15.111Z,53.50
2023-03-30T01:45:33.702Z,53.80
2023-03-30T01:50:42.678Z,53.60
2023-03-30T01:56:02.986Z,53.60
2023-03-30T02:01:08.350Z,53.90
2023-03-30T02:06:39.034Z,54.10
2023-03-30T02:11:46.606Z,54.50
2023-03-30T02:16:57.032Z,54.40
2023-03-30T02:22:02.034Z,54.40
2023-03-30T02:27:08.319Z,53.90
2023-03-30T02:32:37.802Z,54.60
2023-03-30T02:38:15.326Z,54.40
2023-03-30T02:43:31.331Z,54.50
2023-03-30T02:48:57.362Z,55.10
2023-03-30T02:54:18.191Z,55.50
2023-03-30T03:00:13.488Z,54.90
2023-03-30T03:05:18.122Z,54.90
2023-03-30T03:10:42.527Z,54.80
2023-03-30T03:15:49.903Z,55.00
2023-03-30T03:20:54.068Z,55.10
2023-03-30T03:26:00.662Z,55.10
2023-03-30T03:31:06.782Z,55.20
2023-03-30T03:36:12.603Z,55.30
2023-03-30T03:41:24.215Z,55.10
2023-03-30T03:46:28.536Z,55.30
2023-03-30T03:51:33.405Z,55.40
2023-03-30T03:56:37.273Z,55.30
2023-03-30T04:01:41.298Z,55.30
2023-03-30T04:06:45.813Z,55.70
2023-03-30T04:11:50.057Z,54.90
2023-03-30T04:17:12.078Z,54.80
2023-03-30T04:22:27.282Z,54.20
2023-03-30T04:27:58.131Z,53.30
2023-03-30T04:33:38.833Z,53.00
2023-03-30T04:38:59.074Z,52.80
2023-03-30T04:44:23.098Z,53.50
2023-03-30T04:49:49.335Z,52.80
2023-03-30T04:55:16.187Z,52.80
2023-03-30T05:00:29.738Z,52.80
2023-03-30T05:05:53.928Z,52.80
2023-03-30T05:11:22.215Z,52.70
2023-03-30T05:16:37.850Z,52.60
2023-03-30T05:22:02.306Z,52.50
2023-03-30T05:27:41.546Z,52.30
2023-03-30T05:33:02.909Z,52.60
2023-03-30T05:38:22.043Z,52.60
2023-03-30T05:43:55.280Z,53.00
2023-03-30T05:49:18.213Z,53.20
2023-03-30T05:54:48.441Z,53.60
2023-03-30T06:00:11.194Z,54.30
2023-03-30T06:05:22.301Z,54.60
2023-03-30T06:10:26.841Z,54.60
2023-03-30T06:15:32.100Z,55.40
2023-03-30T06:20:42.981Z,55.90
2023-03-30T06:25:53.617Z,55.70
2023-03-30T06:31:03.600Z,56.00
2023-03-30T06:36:13.393Z,55.30
2023-03-30T06:41:17.741Z,55.80
2023-03-30T06:46:22.834Z,55.50
2023-03-30T06:51:28.066Z,55.50
2023-03-30T06:56:33.216Z,55.50
2023-03-30T07:01:48.247Z,55.80
2023-03-30T07:07:28.562Z,55.40
2023-03-30T07:12:32.605Z,55.40
2023-03-30T07:17:37.381Z,55.50
2023-03-30T07:22:43.024Z,55.40
2023-03-30T07:27:48.386Z,55.30
2023-03-30T07:32:53.887Z,55.40
2023-03-30T07:38:03.360Z,55.60
2023-03-30T07:43:12.156Z,55.00
2023-03-30T07:48:16.912Z,55.60
2023-03-30T07:53:23.073Z,54.60
2023-03-30T07:58:29.361Z,54.80
2023-03-30T08:03:33.789Z,55.10
2023-03-30T08:08:41.524Z,55.10
2023-03-30T08:13:46.476Z,55.30
2023-03-30T08:18:50.264Z,55.10
2023-03-30T08:23:56.694Z,54.90
2023-03-30T08:29:00.909Z,54.70
2023-03-30T08:34:05.070Z,55.20
2023-03-30T08:39:09.303Z,54.80
2023-03-30T08:44:34.637Z,55.10
2023-03-30T08:49:56.557Z,54.90
2023-03-30T08:55:00.692Z,56.50
2023-03-30T09:00:37.702Z,55.60
2023-03-30T09:05:51.957Z,56.10
2023-03-30T09:11:01.683Z,55.70
2023-03-30T09:16:48.117Z,55.30
2023-03-30T09:21:54.375Z,55.70
2023-03-30T09:27:09.584Z,56.30
2023-03-30T09:32:15.013Z,55.80
2023-03-30T09:37:19.485Z,56.20
2023-03-30T09:43:02.518Z,56.40
2023-03-30T09:48:09.308Z,56.20
2023-03-30T09:53:27.152Z,56.40
2023-03-30T09:58:35.274Z,56.60
2023-03-30T10:03:41.549Z,56.60
2023-03-30T10:08:56.996Z,56.40
2023-03-30T10:14:01.394Z,56.60
2023-03-30T10:19:18.162Z,56.80
2023-03-30T10:24:24.978Z,56.70
2023-03-30T10:29:30.253Z,56.60
2023-03-30T10:34:39.422Z,56.50
2023-03-30T10:39:47.555Z,55.90
2023-03-30T10:44:55.794Z,55.80
2023-03-30T10:50:08.648Z,55.90
2023-03-30T10:55:29.438Z,56.40
2023-03-30T11:00:48.779Z,56.10
2023-03-30T11:05:57.244Z,56.70
2023-03-30T11:11:01.885Z,57.50
2023-03-30T11:16:11.849Z,58.00
2023-03-30T11:21:18.457Z,57.70
2023-03-30T11:26:51.764Z,58.00
2023-03-30T11:32:16.992Z,58.50
2023-03-30T11:37:35.954Z,59.10
2023-03-30T11:42:40.296Z,58.60
2023-03-30T11:48:09.394Z,59.10
2023-03-30T11:53:25.385Z,59.80
2023-03-30T11:58:49.580Z,60.00
2023-03-30T12:04:11.477Z,60.00
2023-03-30T12:09:37.962Z,60.30
2023-03-30T12:15:00.611Z,60.50
2023-03-30T12:20:33.707Z,61.30
2023-03-30T12:26:01.142Z,61.10
2023-03-30T12:31:05.743Z,61.30
2023-03-30T12:36:26.540Z,61.50
2023-03-30T12:41:42.240Z,61.20
2023-03-30T12:47:24.651Z,62.10
2023-03-30T12:53:04.127Z,61.70
2023-03-30T12:58:08.312Z,62.40
2023-03-30T13:03:20.937Z,62.10
2023-03-30T13:08:40.665Z,62.60
2023-03-30T13:13:52.650Z,62.20
2023-03-30T13:18:56.681Z,62.30
2023-03-30T13:24:26.924Z,62.00
2023-03-30T13:29:31.967Z,62.10
2023-03-30T13:34:44.920Z,62.50
2023-03-30T13:40:05.328Z,62.80
2023-03-30T13:45:32.988Z,63.00
2023-03-30T13:50:38.944Z,62.80
2023-03-30T13:55:50.762Z,62.60
2023-03-30T14:01:02.085Z,62.80
2023-03-30T14:06:18.289Z,62.30
2023-03-30T14:11:26.820Z,62.50
2023-03-30T14:16:39.168Z,62.50
2023-03-30T14:21:45.524Z,62.10
2023-03-30T14:26:50.784Z,62.40
2023-03-30T14:32:07.410Z,62.00
2023-03-30T14:37:13.240Z,61.30
2023-03-30T14:42:20.732Z,61.10
2023-03-30T14:47:27.825Z,61.20
2023-03-30T14:52:38.256Z,61.80
2023-03-30T14:57:43.917Z,62.60
2023-03-30T15:02:54.863Z,62.30
2023-03-30T15:07:59.053Z,62.60
2023-03-30T15:13:04.540Z,61.50
2023-03-30T15:18:10.495Z,61.50
2023-03-30T15:23:14.739Z,61.80
2023-03-30T15:28:20.860Z,62.80
2023-03-30T15:33:40.196Z,62.20
2023-03-30T15:38:51.804Z,62.10
2023-03-30T15:43:58.873Z,64.40
2023-03-30T15:49:03.797Z,65.10
2023-03-30T15:54:18.432Z,64.20
2023-03-30T15:59:28.970Z,66.60
2023-03-30T16:04:33.350Z,66.60
2023-03-30T16:09:39.452Z,65.90
2023-03-30T16:14:45.522Z,65.90
2023-03-30T16:19:55.326Z,65.80
2023-03-30T16:25:02.876Z,64.90
2023-03-30T16:31:11.893Z,64.60
2023-03-30T16:36:20.205Z,64.30
2023-03-30T16:41:27.166Z,64.20
2023-03-30T16:46:35.241Z,63.70
2023-03-30T16:51:44.594Z,63.60
2023-03-30T16:56:52.055Z,63.30
2023-03-30T17:01:57.607Z,63.10
2023-03-30T17:07:01.836Z,62.90
2023-03-30T17:12:06.649Z,63.20
2023-03-30T17:17:12.904Z,62.60
2023-03-30T17:22:18.016Z,62.80
2023-03-30T17:27:22.377Z,62.60
2023-03-30T18:37:04.258Z,60.80
2023-03-30T18:42:10.422Z,60.40
2023-03-30T18:47:17.415Z,60.30
2023-03-30T18:52:23.944Z,61.80
2023-03-30T18:57:30.250Z,62.90
2023-03-30T19:02:38.298Z,63.80
2023-03-30T19:07:44.818Z,65.10
2023-03-30T19:12:54.487Z,68.30
2023-03-30T19:18:01.380Z,71.10
2023-03-30T19:23:12.855Z,69.70
2023-03-30T19:28:21.813Z,68.20
2023-03-30T19:33:28.000Z,67.60
2023-03-30T19:38:34.630Z,66.70
2023-03-30T19:43:40.780Z,66.30
2023-03-30T19:48:46.236Z,66.40
2023-03-30T19:53:53.858Z,65.70
2023-03-30T19:58:59.402Z,65.80
2023-03-30T20:04:07.731Z,65.30
2023-03-30T20:09:14.522Z,65.20
2023-03-30T20:14:20.866Z,65.20
2023-03-30T20:19:29.651Z,64.90
2023-03-30T20:24:34.662Z,65.00
2023-03-30T20:29:38.648Z,64.10
2023-03-30T20:34:46.341Z,64.40
2023-03-30T20:39:51.194Z,63.50
2023-03-30T20:44:56.161Z,64.30
2023-03-30T20:50:00.305Z,64.00
2023-03-30T20:55:05.246Z,63.80
2023-03-30T21:00:10.189Z,63.30
2023-03-30T21:05:14.044Z,63.20
2023-03-30T21:10:18.077Z,67.60
2023-03-30T21:15:22.100Z,67.50
2023-03-30T21:20:26.221Z,67.40
2023-03-30T21:25:31.498Z,67.30
2023-03-30T21:30:36.136Z,67.40
2023-03-30T21:35:40.228Z,67.60
2023-03-30T21:41:05.226Z,66.90
2023-03-30T21:46:16.159Z,70.30
2023-03-30T21:51:23.206Z,70.70
2023-03-30T21:56:29.710Z,69.20
2023-03-30T22:01:33.817Z,68.50
2023-03-30T22:06:37.929Z,67.80
2023-03-30T22:11:41.760Z,68.40
2023-03-30T22:16:47.157Z,68.00
2023-03-30T22:21:52.335Z,67.60
2023-03-30T22:26:56.298Z,68.30
2023-03-30T22:32:00.346Z,67.90
2023-03-30T22:37:04.569Z,67.80
2023-03-30T22:42:08.971Z,67.70
2023-03-30T22:47:13.371Z,66.70
2023-03-30T22:52:17.491Z,66.60
2023-03-30T22:57:21.865Z,66.30
2023-03-30T23:02:25.788Z,66.10
2023-03-30T23:07:31.641Z,66.20
2023-03-30T23:12:35.669Z,66.50
2023-03-30T23:17:40.256Z,66.20
2023-03-30T23:22:44.648Z,64.80
2023-03-30T23:27:48.788Z,64.20
2023-03-30T23:32:52.621Z,64.20
2023-03-30T23:37:56.798Z,62.80
2023-03-30T23:43:01.323Z,62.40
2023-03-30T23:48:05.824Z,62.40
2023-03-30T23:53:09.893Z,62.80
2023-03-30T23:58:14.023Z,62.40
